Time;durP1;ratioP1;P1;durP2;ratioP2;P2;SDS_P1;SDS_P2;PMS_P1;PMS_P2;Temp;Humidity;BMP_temperature;BMP_pressure;BME280_temperature;BME280_humidity;BME280_pressure;Samples;Min_cycle;Max_cycle;Signal;HPM_P1;HPM_P2
2024/01/20 00:02:12;;;;;;;0.40;0.40;;;;;;;7.10;84.11;96349.69;5003707;28;20054;-61
2024/01/20 00:04:39;;;;;;;0.40;0.40;;;;;;;7.20;82.90;96362.88;5003789;28;20058;-61
2024/01/20 00:07:06;;;;;;;0.30;0.30;;;;;;;7.88;83.59;96469.59;5002573;28;20081;-60
2024/01/20 00:09:33;;;;;;;0.40;0.40;;;;;;;7.62;83.70;96429.75;5007722;28;20050;-58
2024/01/20 00:12:15;;;;;;;0.32;0.32;;;;;;;7.83;83.88;96469.91;5005939;28;20049;-59
2024/01/20 00:14:42;;;;;;;0.40;0.40;;;;;;;7.95;84.95;96478.00;5007507;28;20061;-58
2024/01/20 00:17:09;;;;;;;0.40;0.40;;;;;;;7.53;84.48;96407.16;5007278;28;20049;-59
2024/01/20 00:19:50;;;;;;;0.30;0.30;;;;;;;7.86;84.49;96480.19;5007289;28;20056;-60
2024/01/20 00:22:21;;;;;;;0.40;0.40;;;;;;;7.94;86.04;96521.31;5005791;28;20050;-59
2024/01/20 00:24:49;;;;;;;0.30;0.30;;;;;;;8.11;85.68;96514.56;5005762;28;20472;-59
2024/01/20 00:27:17;;;;;;;0.40;0.40;;;;;;;8.05;85.88;96510.47;5006625;28;20058;-59
2024/01/20 00:29:44;;;;;;;0.40;0.40;;;;;;;8.04;84.30;96514.41;5005775;28;20127;-60
2024/01/20 00:32:12;;;;;;;0.38;0.38;;;;;;;7.62;82.47;96465.59;5007159;28;20050;-60
2024/01/20 00:34:39;;;;;;;0.40;0.40;;;;;;;7.74;82.38;96490.22;5007372;28;20049;-59
2024/01/20 00:37:25;;;;;;;0.40;0.40;;;;;;;7.89;82.72;96507.06;5006886;28;20500;-58
2024/01/20 00:39:52;;;;;;;0.40;0.40;;;;;;;7.79;82.64;96508.44;5007404;28;20057;-59
2024/01/20 00:42:19;;;;;;;0.40;0.40;;;;;;;7.71;82.63;96513.00;5006893;28;20054;-58
2024/01/20 00:44:45;;;;;;;0.40;0.40;;;;;;;7.85;82.66;96520.78;5007102;28;20060;-58
2024/01/20 00:47:12;;;;;;;0.40;0.40;;;;;;;7.46;81.66;96483.41;5006918;28;20057;-59
2024/01/20 00:49:39;;;;;;;0.40;0.40;;;;;;;6.29;80.89;96319.75;5020907;28;20066;-59
2024/01/20 00:52:06;;;;;;;0.40;0.40;;;;;;;7.72;81.46;96546.91;5026711;28;20064;-61
2024/01/20 00:54:33;;;;;;;0.40;0.40;;;;;;;7.28;81.29;96496.00;5025423;28;20059;-58
2024/01/20 00:57:00;;;;;;;0.30;0.30;;;;;;;7.35;80.83;96505.19;5026239;28;20046;-58
2024/01/20 00:59:27;;;;;;;0.40;0.40;;;;;;;7.77;81.53;96567.84;5024907;28;20523;-60
2024/01/20 01:01:53;;;;;;;0.40;0.40;;;;;;;7.73;80.61;96560.31;5026687;28;20077;-58
2024/01/20 01:04:20;;;;;;;0.40;0.40;;;;;;;7.76;80.54;96563.50;5026028;28;20053;-58
2024/01/20 01:06:48;;;;;;;0.40;0.40;;;;;;;7.69;80.15;96526.38;5025362;28;20053;-60
2024/01/20 01:09:15;;;;;;;0.40;0.40;;;;;;;7.66;79.75;96557.44;5025872;28;20053;-62
2024/01/20 01:11:42;;;;;;;0.40;0.40;;;;;;;7.30;77.58;96497.22;5024665;28;20131;-59
2024/01/20 01:14:09;;;;;;;0.30;0.30;;;;;;;7.63;77.97;96549.09;5025747;28;20085;-59
2024/01/20 01:16:36;;;;;;;0.40;0.40;;;;;;;7.58;76.46;96546.63;5024682;28;20119;-59
2024/01/20 01:19:03;;;;;;;0.40;0.40;;;;;;;7.53;76.35;96533.13;5024493;28;20058;-60
2024/01/20 01:21:29;;;;;;;0.30;0.30;;;;;;;7.30;75.63;96540.53;5023931;28;20520;-61
2024/01/20 01:23:56;;;;;;;0.40;0.40;;;;;;;6.78;76.16;96480.38;5004580;28;20049;-58
2024/01/20 01:26:23;;;;;;;0.30;0.30;;;;;;;7.13;76.60;96541.72;5006433;28;20376;-59
2024/01/20 01:28:53;;;;;;;0.30;0.30;;;;;;;6.71;77.37;96491.22;5006312;28;20050;-58
2024/01/20 01:31:19;;;;;;;0.40;0.40;;;;;;;7.06;78.46;96547.09;5006114;28;20049;-57
2024/01/20 01:33:47;;;;;;;0.30;0.30;;;;;;;7.16;77.86;96562.25;5005818;28;20140;-58
2024/01/20 01:36:14;;;;;;;0.32;0.32;;;;;;;7.15;76.95;96533.09;5005656;28;20249;-59
2024/01/20 01:38:41;;;;;;;0.30;0.30;;;;;;;7.15;76.64;96550.44;5006470;28;20127;-58
2024/01/20 01:41:08;;;;;;;0.35;0.35;;;;;;;7.26;76.71;96551.47;5005986;28;20493;-58
2024/01/20 01:43:35;;;;;;;0.30;0.30;;;;;;;7.29;76.63;96545.22;5005947;28;20049;-59
2024/01/20 01:46:03;;;;;;;0.35;0.35;;;;;;;7.20;77.14;96530.88;5004697;28;20046;-61
2024/01/20 01:48:30;;;;;;;0.40;0.40;;;;;;;7.29;77.43;96527.88;5005328;28;20484;-59
2024/01/20 01:50:58;;;;;;;0.40;0.40;;;;;;;7.27;77.94;96549.50;5004361;28;20137;-59
2024/01/20 01:53:25;;;;;;;0.37;0.37;;;;;;;7.37;77.88;96563.50;4658947;28;10001648;-58
2024/01/20 01:55:53;;;;;;;0.40;0.40;;;;;;;7.18;77.19;96552.47;4846452;28;5001477;-58
2024/01/20 01:58:19;;;;;;;0.40;0.40;;;;;;;7.24;78.11;96567.53;4498689;28;5002162;-59
2024/01/20 02:00:47;;;;;;;0.30;0.30;;;;;;;7.25;79.44;96568.34;4498871;28;5002142;-60
2024/01/20 02:03:15;;;;;;;0.38;0.38;;;;;;;7.30;81.26;96584.59;4836622;28;5001880;-60
2024/01/20 02:05:43;;;;;;;0.38;0.38;;;;;;;7.20;83.02;96583.19;5006018;28;20046;-58
2024/01/20 02:08:10;;;;;;;0.30;0.30;;;;;;;6.92;79.77;96557.78;5005380;28;20454;-60
2024/01/20 02:10:40;;;;;;;0.35;0.35;;;;;;;7.08;77.69;96583.31;5005611;28;20061;-61
2024/01/20 02:13:07;;;;;;;0.30;0.30;;;;;;;7.07;77.26;96581.72;5003909;28;20065;-58
2024/01/20 02:15:36;;;;;;;0.30;0.30;;;;;;;7.06;76.94;96584.84;5004880;28;20359;-58
2024/01/20 02:18:03;;;;;;;0.30;0.30;;;;;;;7.04;75.17;96571.41;5003921;28;20153;-58
2024/01/20 02:20:30;;;;;;;0.30;0.30;;;;;;;6.95;75.52;96595.59;5005270;28;20042;-59
2024/01/20 02:22:57;;;;;;;0.30;0.30;;;;;;;7.02;76.04;96589.44;5003801;28;20058;-59
2024/01/20 02:25:24;;;;;;;0.40;0.40;;;;;;;7.16;75.75;96585.06;5004643;28;20497;-59
2024/01/20 02:27:50;;;;;;;0.30;0.30;;;;;;;7.16;80.61;96600.81;5005215;28;20049;-61
2024/01/20 02:30:17;;;;;;;0.30;0.30;;;;;;;7.12;83.62;96592.47;5002580;28;20523;-59
2024/01/20 02:32:44;;;;;;;0.30;0.30;;;;;;;7.04;81.50;96598.97;5004854;28;20464;-59
2024/01/20 02:35:11;;;;;;;0.40;0.40;;;;;;;6.83;77.40;96548.13;5003273;28;20420;-58
2024/01/20 02:37:38;;;;;;;0.30;0.30;;;;;;;7.10;74.68;96607.72;5004531;28;20133;-58
2024/01/20 02:40:05;;;;;;;0.30;0.30;;;;;;;6.89;74.24;96607.25;5005218;28;20073;-58
2024/01/20 02:42:32;;;;;;;0.30;0.30;;;;;;;6.71;74.53;96628.84;5003606;28;20088;-58
2024/01/20 02:44:59;;;;;;;0.30;0.30;;;;;;;6.54;73.56;96611.88;5005061;28;20334;-60
2024/01/20 02:47:26;;;;;;;0.30;0.30;;;;;;;6.44;74.10;96621.44;5004302;28;20081;-57
2024/01/20 02:49:52;;;;;;;0.30;0.30;;;;;;;6.42;75.00;96654.00;5004621;28;20061;-58
2024/01/20 02:52:19;;;;;;;0.30;0.30;;;;;;;6.57;75.41;96631.22;5003506;28;20074;-59
2024/01/20 02:54:46;;;;;;;0.30;0.30;;;;;;;6.64;74.15;96634.16;5004780;28;20054;-58
2024/01/20 02:57:13;;;;;;;0.30;0.30;;;;;;;6.73;73.32;96632.03;5004433;28;20050;-59
2024/01/20 02:59:39;;;;;;;0.30;0.30;;;;;;;6.87;74.11;96643.41;5004496;28;20541;-60
2024/01/20 03:02:06;;;;;;;0.30;0.30;;;;;;;6.66;73.71;96598.00;5004778;28;20515;-59
2024/01/20 03:04:33;;;;;;;0.30;0.30;;;;;;;6.95;72.04;96639.66;5004654;28;20057;-59
2024/01/20 03:07:00;;;;;;;0.40;0.40;;;;;;;6.53;72.16;96583.56;5004619;28;20057;-60
2024/01/20 03:09:26;;;;;;;0.30;0.30;;;;;;;6.63;70.95;96637.25;5004425;28;20059;-60
2024/01/20 03:11:53;;;;;;;0.30;0.30;;;;;;;6.56;71.48;96651.63;5004261;28;20054;-57
2024/01/20 03:14:20;;;;;;;0.30;0.30;;;;;;;6.51;71.22;96629.91;5004365;28;20045;-59
2024/01/20 03:16:47;;;;;;;0.30;0.30;;;;;;;6.47;71.04;96656.50;4995355;28;20111;-58
2024/01/20 03:19:14;;;;;;;0.30;0.30;;;;;;;5.83;71.03;96598.22;5004474;28;20045;-59
2024/01/20 03:21:41;;;;;;;0.30;0.30;;;;;;;6.07;71.37;96666.78;5002609;28;20054;-58
2024/01/20 03:24:09;;;;;;;0.30;0.30;;;;;;;6.03;71.92;96663.16;5002230;28;20057;-60
2024/01/20 03:26:36;;;;;;;0.30;0.30;;;;;;;6.29;73.23;96688.25;5004569;28;20053;-60
2024/01/20 03:29:04;;;;;;;0.30;0.30;;;;;;;4.02;73.29;96305.22;5003908;28;20317;-58
2024/01/20 03:31:31;;;;;;;0.30;0.30;;;;;;;6.47;72.96;96695.03;5003828;28;20555;-59
2024/01/20 03:33:57;;;;;;;0.30;0.30;;;;;;;6.47;71.16;96702.47;5003740;28;20053;-58
2024/01/20 03:36:24;;;;;;;0.30;0.30;;;;;;;6.01;70.75;96644.25;5004039;28;20053;-58
2024/01/20 03:38:51;;;;;;;0.30;0.30;;;;;;;6.40;70.76;96672.84;5003683;28;20527;-59
2024/01/20 03:41:18;;;;;;;0.30;0.30;;;;;;;6.12;70.70;96669.28;5004730;28;20658;-58
2024/01/20 03:43:45;;;;;;;0.30;0.30;;;;;;;6.01;70.44;96677.25;5008234;28;20054;-59
2024/01/20 03:46:11;;;;;;;0.30;0.30;;;;;;;5.70;71.88;96665.31;5008157;28;20073;-59
2024/01/20 03:48:39;;;;;;;0.30;0.30;;;;;;;5.70;71.57;96654.31;5007985;28;20056;-58
2024/01/20 03:51:06;;;;;;;0.30;0.30;;;;;;;5.33;72.15;96639.88;5006223;28;20050;-58
2024/01/20 03:53:33;;;;;;;0.30;0.30;;;;;;;5.90;72.18;96711.06;5006683;28;20064;-58
2024/01/20 03:56:01;;;;;;;0.30;0.30;;;;;;;5.80;71.01;96708.81;5008028;28;20295;-58
2024/01/20 03:58:28;;;;;;;0.30;0.30;;;;;;;5.76;72.62;96718.88;5007797;28;20054;-58
2024/01/20 04:00:55;;;;;;;0.30;0.30;;;;;;;5.62;72.28;96723.94;5008023;28;20056;-60
2024/01/20 04:03:22;;;;;;;0.30;0.30;;;;;;;5.57;72.11;96724.16;5005959;28;20053;-57
2024/01/20 04:05:48;;;;;;;0.30;0.30;;;;;;;5.51;72.38;96733.81;5007889;28;20050;-58
2024/01/20 04:08:15;;;;;;;0.30;0.30;;;;;;;5.23;72.88;96699.97;5005964;28;20054;-60
2024/01/20 04:10:42;;;;;;;0.30;0.30;;;;;;;5.26;73.14;96727.53;5005933;28;20068;-57
2024/01/20 04:13:10;;;;;;;0.20;0.20;;;;;;;5.33;73.22;96755.22;5007471;28;20049;-59
2024/01/20 04:15:37;;;;;;;0.30;0.30;;;;;;;5.35;73.49;96752.94;5005922;28;20049;-58
2024/01/20 04:18:04;;;;;;;0.30;0.30;;;;;;;5.51;73.37;96762.06;5006853;28;20060;-61
2024/01/20 04:20:30;;;;;;;0.30;0.30;;;;;;;5.62;72.89;96763.22;5012368;28;20557;-58
2024/01/20 04:22:57;;;;;;;0.30;0.30;;;;;;;5.78;73.14;96766.03;5006192;28;20054;-58
2024/01/20 04:25:24;;;;;;;0.30;0.30;;;;;;;5.76;71.99;96757.34;5006875;28;20054;-60
2024/01/20 04:27:50;;;;;;;0.30;0.30;;;;;;;5.91;72.33;96762.16;5005788;28;20057;-58
2024/01/20 04:30:17;;;;;;;0.30;0.30;;;;;;;5.68;71.66;96728.03;5007341;28;20432;-59
2024/01/20 04:32:44;;;;;;;0.30;0.30;;;;;;;6.09;72.89;96771.72;5007221;28;20433;-61
2024/01/20 04:35:11;;;;;;;0.30;0.30;;;;;;;6.07;72.98;96780.31;5007419;28;20060;-59
2024/01/20 04:37:39;;;;;;;0.30;0.30;;;;;;;5.63;73.82;96731.03;5007104;28;20639;-59
2024/01/20 04:40:06;;;;;;;0.30;0.30;;;;;;;5.99;75.07;96774.97;5007200;28;20108;-58
2024/01/20 04:42:33;;;;;;;0.30;0.30;;;;;;;6.04;75.26;96763.72;5005844;28;20063;-58
2024/01/20 04:45:03;;;;;;;0.30;0.30;;;;;;;6.11;76.79;96763.94;5006925;28;20060;-58
2024/01/20 04:47:32;;;;;;;0.30;0.30;;;;;;;5.98;77.59;96745.88;5005070;28;20060;-59
2024/01/20 04:49:59;;;;;;;0.30;0.30;;;;;;;5.87;79.48;96764.81;5019695;28;20060;-58
2024/01/20 04:52:26;;;;;;;0.30;0.30;;;;;;;5.44;80.28;96772.00;5026140;28;21358;-58
2024/01/20 04:54:52;;;;;;;0.30;0.30;;;;;;;5.18;80.28;96733.13;5026201;28;20060;-59
2024/01/20 04:57:20;;;;;;;0.30;0.30;;;;;;;5.09;81.77;96787.34;5025190;28;20054;-61
2024/01/20 04:59:47;;;;;;;0.30;0.30;;;;;;;5.07;81.62;96808.84;5025158;28;20060;-59
2024/01/20 05:02:14;;;;;;;0.30;0.30;;;;;;;4.45;81.45;96770.63;5026228;28;20457;-61
2024/01/20 05:04:42;;;;;;;0.20;0.20;;;;;;;4.97;80.44;96823.00;5026690;28;20088;-58
2024/01/20 05:07:08;;;;;;;0.30;0.30;;;;;;;5.07;79.87;96817.06;5026693;28;20212;-60
2024/01/20 05:09:36;;;;;;;0.20;0.20;;;;;;;4.89;78.95;96812.91;5026405;28;20144;-58
2024/01/20 05:12:03;;;;;;;0.30;0.30;;;;;;;5.02;78.69;96809.06;5026219;28;20068;-58
2024/01/20 05:14:30;;;;;;;0.25;0.25;;;;;;;4.92;76.50;96812.22;5024513;28;20142;-57
2024/01/20 05:16:57;;;;;;;0.30;0.30;;;;;;;4.93;77.03;96819.34;5024510;28;20485;-58
2024/01/20 05:19:23;;;;;;;0.20;0.20;;;;;;;5.00;76.20;96817.63;5025690;28;20512;-57
2024/01/20 05:21:50;;;;;;;0.30;0.30;;;;;;;5.05;76.37;96819.34;5024615;28;20065;-58
2024/01/20 05:24:17;;;;;;;0.30;0.30;;;;;;;5.19;75.84;96809.66;5024384;28;20059;-59
2024/01/20 05:26:44;;;;;;;0.20;0.20;;;;;;;5.26;76.50;96820.09;5025696;28;20135;-58
2024/01/20 05:29:11;;;;;;;0.30;0.30;;;;;;;5.18;79.38;96827.28;5025881;28;20108;-58
2024/01/20 05:31:37;;;;;;;0.22;0.22;;;;;;;4.88;81.43;96783.88;5025701;28;20055;-59
2024/01/20 05:34:04;;;;;;;0.20;0.20;;;;;;;5.08;82.85;96833.22;5025585;28;20064;-60
2024/01/20 05:36:31;;;;;;;0.28;0.28;;;;;;;5.06;87.31;96837.44;5025686;28;20118;-60
2024/01/20 05:38:58;;;;;;;0.30;0.30;;;;;;;4.99;89.98;96834.44;5025489;28;20428;-58
2024/01/20 05:41:25;;;;;;;0.28;0.28;;;;;;;4.52;92.47;96815.53;5025363;28;20046;-60
2024/01/20 05:43:52;;;;;;;0.30;0.30;;;;;;;4.45;97.39;96861.91;5023844;28;20057;-58
2024/01/20 05:46:20;;;;;;;0.30;0.30;;;;;;;4.53;100.00;96858.28;5006139;28;20080;-58
2024/01/20 05:48:47;;;;;;;0.30;0.30;;;;;;;4.52;100.00;96873.13;5005610;28;20536;-59
2024/01/20 05:51:14;;;;;;;0.20;0.20;;;;;;;4.45;100.00;96872.06;5005685;28;20174;-60
2024/01/20 05:53:41;;;;;;;0.20;0.20;;;;;;;4.20;100.00;96887.59;5005949;28;20084;-60
2024/01/20 05:56:07;;;;;;;0.30;0.30;;;;;;;4.11;100.00;96886.81;5004858;28;20057;-59
2024/01/20 05:58:34;;;;;;;0.20;0.20;;;;;;;3.84;100.00;96851.69;5006017;28;20076;-59
2024/01/20 06:01:01;;;;;;;0.30;0.30;;;;;;;3.99;100.00;96924.31;5005839;28;20069;-60
2024/01/20 06:03:28;;;;;;;0.20;0.20;;;;;;;4.07;100.00;96907.81;5005923;28;20148;-60
2024/01/20 06:05:55;;;;;;;0.20;0.20;;;;;;;4.01;100.00;96892.72;5002831;28;20134;-59
2024/01/20 06:08:22;;;;;;;0.30;0.30;;;;;;;4.13;100.00;96908.41;5004014;28;20058;-59
2024/01/20 06:10:50;;;;;;;0.20;0.20;;;;;;;3.82;100.00;96872.34;5003996;28;20050;-59
2024/01/20 06:13:17;;;;;;;0.30;0.30;;;;;;;4.10;100.00;96920.88;5005449;28;20440;-59
2024/01/20 06:15:43;;;;;;;0.30;0.30;;;;;;;3.91;100.00;96911.44;5005396;28;20054;-58
2024/01/20 06:18:10;;;;;;;0.30;0.30;;;;;;;3.52;100.00;96893.47;5004905;28;20417;-58
2024/01/20 06:20:37;;;;;;;0.30;0.30;;;;;;;3.93;100.00;96953.03;5005330;28;20060;-60
2024/01/20 06:23:04;;;;;;;0.30;0.30;;;;;;;3.35;100.00;96860.66;5005464;28;20057;-59
2024/01/20 06:25:31;;;;;;;0.20;0.20;;;;;;;3.59;100.00;96903.91;5004742;28;20057;-58
2024/01/20 06:27:58;;;;;;;0.20;0.20;;;;;;;3.80;100.00;96948.56;5005162;28;20062;-58
2024/01/20 06:30:24;;;;;;;0.30;0.30;;;;;;;3.79;100.00;96953.28;5005366;28;20061;-58
2024/01/20 06:32:51;;;;;;;0.22;0.22;;;;;;;3.88;100.00;96955.94;5004982;28;20081;-59
2024/01/20 06:35:18;;;;;;;0.20;0.20;;;;;;;3.85;100.00;96962.09;5005776;28;20069;-57
2024/01/20 06:37:45;;;;;;;0.22;0.22;;;;;;;3.35;100.00;96909.91;5003605;28;20049;-57
2024/01/20 06:40:12;;;;;;;0.28;0.28;;;;;;;3.51;100.00;96930.16;5004844;28;20053;-59
2024/01/20 06:42:39;;;;;;;0.30;0.30;;;;;;;3.58;100.00;96974.28;5004750;28;20081;-58
2024/01/20 06:45:06;;;;;;;0.20;0.20;;;;;;;3.58;100.00;96977.03;5004857;28;20090;-60
2024/01/20 06:47:33;;;;;;;0.20;0.20;;;;;;;3.66;100.00;96984.41;5004334;28;20085;-60
2024/01/20 06:50:00;;;;;;;0.20;0.20;;;;;;;3.36;100.00;96982.72;5004383;28;20057;-58
2024/01/20 06:52:29;;;;;;;0.20;0.20;;;;;;;3.49;100.00;96992.69;5003036;28;20533;-58
2024/01/20 06:54:56;;;;;;;0.20;0.20;;;;;;;3.40;100.00;96991.88;5003314;28;20049;-58
2024/01/20 06:57:23;;;;;;;0.20;0.20;;;;;;;2.61;100.00;96890.28;5004328;28;20541;-56
2024/01/20 06:59:50;;;;;;;0.20;0.20;;;;;;;3.24;100.00;97006.41;5004400;28;20050;-58
2024/01/20 07:02:16;;;;;;;0.20;0.20;;;;;;;2.92;100.00;96985.84;5004582;28;20053;-59
2024/01/20 07:04:43;;;;;;;0.20;0.20;;;;;;;2.27;100.00;96911.38;5004718;28;20057;-57
2024/01/20 07:07:10;;;;;;;0.20;0.20;;;;;;;2.06;100.00;96891.25;5004297;28;20050;-58
2024/01/20 07:09:40;;;;;;;0.20;0.20;;;;;;;2.90;100.00;97027.19;5003344;28;20493;-58
2024/01/20 07:12:10;;;;;;;0.20;0.20;;;;;;;2.79;100.00;97045.03;5003351;28;20057;-58
2024/01/20 07:14:36;;;;;;;0.30;0.30;;;;;;;2.78;100.00;97045.38;5003430;28;20068;-58
2024/01/20 07:17:05;;;;;;;0.20;0.20;;;;;;;2.02;100.00;96926.59;5001959;28;20073;-64
2024/01/20 07:19:32;;;;;;;0.20;0.20;;;;;;;2.69;100.00;97036.31;5002588;28;20053;-64
2024/01/20 07:21:59;;;;;;;0.20;0.20;;;;;;;1.94;100.00;96927.38;5006187;28;20068;-63
2024/01/20 07:24:27;;;;;;;0.20;0.20;;;;;;;2.40;100.00;97000.59;5021317;28;20064;-62
2024/01/20 07:26:55;;;;;;;0.20;0.20;;;;;;;2.84;100.00;97071.44;5021879;28;20045;-62
2024/01/20 07:29:23;;;;;;;0.20;0.20;;;;;;;2.74;100.00;97063.53;5021637;28;20112;-71
2024/01/20 07:31:50;;;;;;;0.30;0.30;;;;;;;2.75;100.00;97081.56;5021853;28;20055;-62
2024/01/20 07:34:17;;;;;;;0.20;0.20;;;;;;;2.71;100.00;97130.59;5023517;28;20451;-68
2024/01/20 07:36:44;;;;;;;0.20;0.20;;;;;;;1.92;100.00;96986.16;5021320;28;20073;-62
2024/01/20 07:39:11;;;;;;;0.30;0.30;;;;;;;2.00;100.00;96996.31;5023358;28;20489;-63
2024/01/20 07:41:38;;;;;;;0.20;0.20;;;;;;;2.65;100.00;97092.78;5021776;28;20053;-66
2024/01/20 07:44:05;;;;;;;0.20;0.20;;;;;;;-0.66;100.00;96583.81;5023235;28;20625;-62
2024/01/20 07:46:31;;;;;;;0.20;0.20;;;;;;;2.27;100.00;97119.03;5021421;28;20057;-60
2024/01/20 07:48:58;;;;;;;0.20;0.20;;;;;;;2.40;100.00;97107.19;5021620;28;20059;-61
2024/01/20 07:51:25;;;;;;;0.20;0.20;;;;;;;1.97;100.00;97037.91;5022854;28;20585;-64
2024/01/20 07:53:52;;;;;;;0.20;0.20;;;;;;;2.15;100.00;97061.47;5021796;28;20084;-63
2024/01/20 07:56:18;;;;;;;0.20;0.20;;;;;;;2.40;100.00;97118.13;5023599;28;20060;-62
2024/01/20 07:58:45;;;;;;;0.20;0.20;;;;;;;2.38;100.00;97120.38;5023448;28;20530;-61
2024/01/20 08:01:12;;;;;;;0.20;0.20;;;;;;;1.64;100.00;97077.59;5023425;28;20084;-67
2024/01/20 08:03:39;;;;;;;0.20;0.20;;;;;;;2.18;100.00;97140.06;5023223;28;20132;-64
2024/01/20 08:06:07;;;;;;;0.20;0.20;;;;;;;1.47;100.00;97024.50;5022955;28;20041;-65
2024/01/20 08:08:34;;;;;;;0.20;0.20;;;;;;;2.52;100.00;97173.00;5014146;28;20046;-61
2024/01/20 08:11:00;;;;;;;0.20;0.20;;;;;;;2.14;100.00;97109.00;5008690;28;20057;-62
2024/01/20 08:13:27;;;;;;;0.20;0.20;;;;;;;1.05;100.00;96924.13;5008255;28;20526;-64
2024/01/20 08:15:54;;;;;;;0.20;0.20;;;;;;;2.22;100.00;97108.25;5002817;28;20061;-67
2024/01/20 08:18:21;;;;;;;0.20;0.20;;;;;;;1.52;100.00;96994.34;5014031;28;20053;-62
2024/01/20 08:20:48;;;;;;;0.20;0.20;;;;;;;2.61;100.00;97154.69;5007547;28;20485;-63
2024/01/20 08:23:14;;;;;;;0.20;0.20;;;;;;;2.37;100.00;97127.75;5004652;28;20050;-62
2024/01/20 08:25:41;;;;;;;0.20;0.20;;;;;;;2.41;100.00;97133.41;5013906;28;20249;-62
2024/01/20 08:28:08;;;;;;;0.20;0.20;;;;;;;2.69;100.00;97170.31;5004232;28;20133;-63
2024/01/20 08:30:35;;;;;;;0.20;0.20;;;;;;;0.81;100.00;96871.88;5005612;28;20049;-64
2024/01/20 08:33:02;;;;;;;0.20;0.20;;;;;;;2.71;100.00;97176.28;5006996;28;20057;-63
2024/01/20 08:35:34;;;;;;;0.20;0.20;;;;;;;1.82;100.00;97057.47;5023172;28;20124;-66
2024/01/20 08:38:01;;;;;;;0.20;0.20;;;;;;;2.67;100.00;97189.00;5007112;28;20056;-64
2024/01/20 08:40:28;;;;;;;0.20;0.20;;;;;;;1.94;100.00;97101.38;5005410;28;20234;-64
2024/01/20 08:42:55;;;;;;;0.30;0.30;;;;;;;2.68;100.00;97201.53;5004734;28;20054;-69
2024/01/20 08:45:21;;;;;;;0.20;0.20;;;;;;;2.61;100.00;97203.91;5004898;28;20089;-68
2024/01/20 08:47:48;;;;;;;0.20;0.20;;;;;;;2.66;100.00;97203.75;5015210;28;20557;-66
2024/01/20 08:50:15;;;;;;;0.20;0.20;;;;;;;2.25;100.00;97126.72;5035034;28;20053;-66
2024/01/20 08:52:42;;;;;;;0.20;0.20;;;;;;;2.00;100.00;97095.44;5013422;28;20053;-59
2024/01/20 08:55:09;;;;;;;0.20;0.20;;;;;;;2.09;100.00;97155.56;5007350;28;20610;-62
2024/01/20 08:57:36;;;;;;;0.20;0.20;;;;;;;2.65;100.00;97193.97;5007338;28;20133;-59
2024/01/20 09:00:05;;;;;;;0.20;0.20;;;;;;;2.40;100.00;97167.31;5005041;28;20056;-59
2024/01/20 09:02:32;;;;;;;0.20;0.20;;;;;;;2.58;100.00;97186.22;5006506;28;20410;-64
2024/01/20 09:04:58;;;;;;;0.20;0.20;;;;;;;2.79;100.00;97219.28;5006480;28;20436;-63
2024/01/20 09:07:25;;;;;;;0.20;0.20;;;;;;;2.91;100.00;97223.00;5005582;28;20081;-67
2024/01/20 09:09:52;;;;;;;0.30;0.30;;;;;;;2.39;100.00;97149.28;5004858;28;20042;-60
2024/01/20 09:12:19;;;;;;;0.22;0.22;;;;;;;2.37;100.00;97170.69;5005887;28;20072;-60
2024/01/20 09:14:46;;;;;;;0.20;0.20;;;;;;;2.23;100.00;97129.00;5006527;28;20526;-61
2024/01/20 09:17:13;;;;;;;0.20;0.20;;;;;;;2.58;100.00;97171.72;5005571;28;20111;-63
2024/01/20 09:19:40;;;;;;;0.20;0.20;;;;;;;2.42;100.00;97165.09;5006171;28;20050;-62
2024/01/20 09:22:07;;;;;;;0.20;0.20;;;;;;;2.47;100.00;97193.06;5006024;28;20104;-61
2024/01/20 09:24:33;;;;;;;0.20;0.20;;;;;;;2.45;100.00;97219.13;5006105;28;20229;-58
2024/01/20 09:27:00;;;;;;;0.25;0.25;;;;;;;2.02;100.00;97127.91;5006226;28;20100;-66
2024/01/20 09:29:27;;;;;;;0.20;0.20;;;;;;;2.86;100.00;97268.88;5004294;28;20057;-60
2024/01/20 09:31:54;;;;;;;0.20;0.20;;;;;;;2.40;100.00;97200.91;5006160;28;20061;-59
2024/01/20 09:34:22;;;;;;;0.30;0.30;;;;;;;2.35;100.00;97179.22;5005879;28;20060;-70
2024/01/20 09:36:50;;;;;;;0.20;0.20;;;;;;;2.78;100.00;97272.38;5005789;28;20050;-69
2024/01/20 09:39:17;;;;;;;0.20;0.20;;;;;;;2.29;100.00;97250.69;5005686;28;20149;-64
2024/01/20 09:41:45;;;;;;;0.20;0.20;;;;;;;1.96;100.00;97175.59;5004276;28;20054;-72
2024/01/20 09:44:14;;;;;;;0.20;0.20;;;;;;;2.69;100.00;97275.03;5005827;28;20093;-63
2024/01/20 09:46:42;;;;;;;0.22;0.22;;;;;;;1.91;100.00;97145.69;5005131;28;20050;-66
2024/01/20 09:49:09;;;;;;;0.20;0.20;;;;;;;2.69;100.00;97279.69;5005640;28;20050;-64
2024/01/20 09:51:45;;;;;;;0.20;0.20;;;;;;;2.64;100.00;97293.53;5014950;28;20063;-70
2024/01/20 09:54:14;;;;;;;0.20;0.20;;;;;;;2.60;100.00;97282.41;5030832;28;20103;-62
2024/01/20 09:56:41;;;;;;;0.20;0.20;;;;;;;1.77;100.00;97144.97;5024571;28;20140;-67
2024/01/20 09:59:09;;;;;;;0.20;0.20;;;;;;;2.59;100.00;97288.97;5023810;28;20060;-67
2024/01/20 10:01:39;;;;;;;0.20;0.20;;;;;;;2.71;100.00;97291.13;5024601;28;20119;-61
2024/01/20 10:04:08;;;;;;;0.20;0.20;;;;;;;1.48;100.00;97140.75;5013869;28;20045;-62
2024/01/20 10:06:36;;;;;;;0.20;0.20;;;;;;;2.39;100.00;97264.09;5013654;28;20111;-61
2024/01/20 10:09:03;;;;;;;0.20;0.20;;;;;;;2.31;100.00;97284.00;5005244;28;20053;-60
2024/01/20 10:11:30;;;;;;;0.20;0.20;;;;;;;1.07;100.00;97091.00;5012199;28;21272;-65
2024/01/20 10:13:57;;;;;;;0.20;0.20;;;;;;;2.09;100.00;97259.38;5016793;28;20045;-64
2024/01/20 10:16:24;;;;;;;0.20;0.20;;;;;;;1.72;100.00;97211.41;5019102;28;20112;-59
2024/01/20 10:18:51;;;;;;;0.20;0.20;;;;;;;2.38;100.00;97317.16;5018612;28;20063;-58
2024/01/20 10:21:19;;;;;;;0.20;0.20;;;;;;;2.17;100.00;97302.34;5005960;28;20145;-59
2024/01/20 10:23:46;;;;;;;0.20;0.20;;;;;;;2.02;100.00;97297.28;5002711;28;20100;-59
2024/01/20 10:26:13;;;;;;;0.20;0.20;;;;;;;2.38;100.00;97317.16;5005213;28;20148;-58
2024/01/20 10:28:40;;;;;;;0.20;0.20;;;;;;;2.20;100.00;97309.94;5003285;28;20527;-59
2024/01/20 10:31:08;;;;;;;0.20;0.20;;;;;;;2.31;100.00;97333.19;5003787;28;20056;-60
2024/01/20 10:33:35;;;;;;;0.20;0.20;;;;;;;2.28;100.00;97339.25;5003487;28;20129;-58
2024/01/20 10:36:03;;;;;;;0.20;0.20;;;;;;;1.67;100.00;97273.50;5005212;28;20050;-60
2024/01/20 10:38:38;;;;;;;0.20;0.20;;;;;;;2.32;100.00;97334.78;5015769;28;20045;-58
2024/01/20 10:41:07;;;;;;;0.20;0.20;;;;;;;2.16;100.00;97330.81;5022586;28;20137;-57
2024/01/20 10:43:39;;;;;;;0.20;0.20;;;;;;;2.01;100.00;97317.53;5021315;28;20060;-57
2024/01/20 10:46:29;;;;;;;0.25;0.25;;;;;;;2.08;100.00;97328.81;5021621;28;20045;-58
2024/01/20 10:49:00;;;;;;;0.20;0.20;;;;;;;1.84;100.00;97270.94;5023983;28;20556;-58
2024/01/20 10:51:27;;;;;;;0.20;0.20;;;;;;;2.08;100.00;97328.81;5013593;28;20132;-57
2024/01/20 10:53:58;;;;;;;0.20;0.20;;;;;;;1.47;100.00;97270.13;5004161;28;20509;-57
2024/01/20 10:56:27;;;;;;;0.20;0.20;;;;;;;1.40;100.00;97340.69;5004779;28;20100;-60
2024/01/20 10:59:10;;;;;;;0.20;0.20;;;;;;;1.28;100.00;97332.19;5004228;28;20046;-56
2024/01/20 11:01:40;;;;;;;0.20;0.20;;;;;;;1.34;100.00;97350.06;5004461;28;20531;-57
2024/01/20 11:04:07;;;;;;;0.20;0.20;;;;;;;1.25;100.00;97330.06;5004544;28;20100;-56
2024/01/20 11:06:36;;;;;;;0.20;0.20;;;;;;;0.97;100.00;97293.00;5004090;28;20050;-56
2024/01/20 11:09:03;;;;;;;0.20;0.20;;;;;;;1.41;100.00;97325.94;5001441;28;20112;-56
2024/01/20 11:11:34;;;;;;;0.20;0.20;;;;;;;1.51;100.00;97358.47;5003976;28;20140;-57
2024/01/20 11:14:01;;;;;;;0.20;0.20;;;;;;;1.39;100.00;97319.16;5002896;28;20489;-57
2024/01/20 11:16:32;;;;;;;0.20;0.20;;;;;;;1.51;100.00;97342.09;5004705;28;20053;-57
2024/01/20 11:19:08;;;;;;;0.20;0.20;;;;;;;1.46;100.00;97350.38;5004548;28;20516;-58
2024/01/20 11:21:35;;;;;;;0.20;0.20;;;;;;;1.52;100.00;97345.63;5003171;28;20061;-59
2024/01/20 11:24:04;;;;;;;0.20;0.20;;;;;;;1.73;100.00;97351.44;5003750;28;20084;-59
2024/01/20 11:26:33;;;;;;;0.20;0.20;;;;;;;1.56;100.00;97363.03;5004323;28;20538;-58
2024/01/20 11:29:05;;;;;;;0.20;0.20;;;;;;;1.75;100.00;97362.88;5004237;28;20049;-59
2024/01/20 11:31:33;;;;;;;0.20;0.20;;;;;;;1.74;100.00;97372.19;5003934;28;20436;-59
2024/01/20 11:34:02;;;;;;;0.20;0.20;;;;;;;1.35;100.00;97370.81;5002992;28;20468;-60
2024/01/20 11:36:30;;;;;;;0.20;0.20;;;;;;;1.37;100.00;97374.06;5003949;28;20440;-57
2024/01/20 11:38:59;;;;;;;0.20;0.20;;;;;;;1.01;100.00;97325.94;5004240;28;20075;-57